^^
Station Historical Data
 
Daily Summary for February 23, 2018 Units:  Metric    English   Both
« Previous Day
Next Day »
Daily Weekly Monthly Yearly Custom
  Current: High: Low: Average:
Temperature: -18.3 °C -17.8 °C -18.3 °C -18 °C
Dew Point: -18.5 °C -17.8 °C -18.6 °C -18.2 °C
Humidity: 97% Humidity% 96% 94%
Wind Speed: 0km/h 0km/h 0km/h 0.5km/h
Wind Gust: 5.1km/h 0km/h - -
WindCalm - - NE
Pressure: 34635.4 hPa 0 hPa 34635.4 hPa -
Precipitation: 0 mm      
Historical Graphs
 
 
Tabular Data for February 23, 2018
Time Temperature Dew Point Pressure Wind Wind Speed Wind Gust Humidity Rainfall Rate (Hourly) solar Conditions
-17.8 °C -17.8 °C 0 hPa Calm     Humidity% 0 mm SolarRadiationWatts/m^2 W/m2 Conditions
00:00 -17.8 °C -17.8 °C 34645.6 hPa ENE 1.6 km/h 9 km/h 99% 0 mm 0.0 W/m2 FEW
00:05 -17.8 °C -17.9 °C 34645.6 hPa NE 1 km/h 6 km/h 99% 0 mm 0.0 W/m2 FEW
00:10 -17.8 °C -17.9 °C 34635.4 hPa Calm     99% 0 mm 0.0 W/m2 FEW
00:15 -17.9 °C -17.9 °C 34645.6 hPa Calm     99% 0 mm 0.0 W/m2 FEW
00:20 -17.9 °C -18.1 °C 34645.6 hPa NE 0.5 km/h 6 km/h 98% 0 mm 0.0 W/m2 FEW
00:25 -17.9 °C -18.1 °C 34645.6 hPa Calm   6 km/h 98% 0 mm 0.0 W/m2 FEW
00:30 -17.9 °C -18.1 °C 34645.6 hPa Calm     98% 0 mm 0.0 W/m2 FEW
00:35 -17.9 °C -18 °C 34645.6 hPa Calm   3.1 km/h 99% 0 mm 0.0 W/m2 FEW
00:40 -18 °C -18.2 °C 34645.6 hPa Calm     98% 0 mm 0.0 W/m2 FEW
00:45 -18 °C -18.2 °C 34635.4 hPa Calm     98% 0 mm 0.0 W/m2 FEW
00:50 -18 °C -18.2 °C 34635.4 hPa NNE 0.3 km/h 6 km/h 98% 0 mm 0.0 W/m2 FEW
00:55 -17.9 °C -18.1 °C 34645.6 hPa Calm   6 km/h 98% 0 mm 0.0 W/m2 FEW
01:00 -17.9 °C -18.1 °C 34645.6 hPa NE 0.5 km/h 6 km/h 98% 0 mm 0.0 W/m2 FEW
01:05 -17.9 °C -18.2 °C 34645.6 hPa NNE 0.8 km/h 6 km/h 97% 0 mm 0.0 W/m2 FEW
01:10 -18 °C -18.2 °C 34645.6 hPa ENE 0.3 km/h 4.2 km/h 97% 0 mm 0.0 W/m2 FEW
01:15 -18 °C -18.2 °C 34635.4 hPa NE 0.8 km/h 6 km/h 97% 0 mm 0.0 W/m2 FEW
01:20 -18 °C -18.2 °C 34645.6 hPa NE 1.3 km/h 6 km/h 97% 0 mm 0.0 W/m2 FEW
01:26 -17.9 °C -18.2 °C 34645.6 hPa NE 1.3 km/h 6 km/h 96% 0 mm 0.0 W/m2 FEW
01:31 -17.9 °C -18.2 °C 34645.6 hPa East 1 km/h 6 km/h 96% 0 mm 0.0 W/m2 FEW
01:36 -18 °C -18.3 °C 34645.6 hPa NE 0.3 km/h 6 km/h 96% 0 mm 0.0 W/m2 FEW
01:41 -17.9 °C -18.2 °C 34645.6 hPa ENE 0.5 km/h 5.1 km/h 96% 0 mm 0.0 W/m2 FEW
01:46 -18 °C -18.3 °C 34645.6 hPa Calm     96% 0 mm 0.0 W/m2 FEW
01:51 -18 °C -18.3 °C 34645.6 hPa NNE 1.8 km/h 9 km/h 96% 0 mm 0.0 W/m2 FEW
01:56 -18 °C -18.3 °C 34645.6 hPa ENE 1.3 km/h 6 km/h 96% 0 mm 0.0 W/m2 FEW
02:01 -18 °C -18.3 °C 34645.6 hPa ENE 0.3 km/h 6 km/h 96% 0 mm 0.0 W/m2 FEW
02:06 -18 °C -18.3 °C 34635.4 hPa Calm   2.6 km/h 96% 0 mm 0.0 W/m2 FEW
02:11 -18.1 °C -18.4 °C 34635.4 hPa Calm   3.1 km/h 96% 0 mm 0.0 W/m2 FEW
02:16 -18.1 °C -18.4 °C 34635.4 hPa Calm   4.3 km/h 96% 0 mm 0.0 W/m2 FEW
02:21 -18.2 °C -18.5 °C 34635.4 hPa Calm   4.7 km/h 96% 0 mm 0.0 W/m2 FEW
02:26 -18.2 °C -18.5 °C 34645.6 hPa NE 0.3 km/h 3.1 km/h 96% 0 mm 0.0 W/m2 FEW
02:31 -18.2 °C -18.5 °C 34635.4 hPa Calm   6 km/h 96% 0 mm 0.0 W/m2 FEW
02:36 -18.3 °C -18.6 °C 34635.4 hPa ENE 0.3 km/h 6 km/h 96% 0 mm 0.0 W/m2 FEW
02:42 -18.3 °C -18.5 °C 34635.4 hPa Calm   5.1 km/h 97% 0 mm 0.0 W/m2
Chelmer Village, Chelmsford, UK
Compliments of Weather Underground - 2 mb